メインページ
METAR-TAF:

METAR-TAF

空港 :

ウランバートル, モンゴル国

チンギスハーン国際空港

緯度: 47-55N, 経度: 106-52E, 海抜: 1306m

現時点の気象観測

当レポートは5分前の23:30(UTC)に作成
無風
気温 1°C
湿度 86%
気圧 1011 hPa
視程10km以上
高度3300ftの雲はほとんどない

METAR: ZMUB 232330Z 00000MPS 9999 FEW033 01/M01 Q1011 NOSIG RMK QFE651.5 89 MOP

時間: 08:35 (23:35 UTC)

予報

当レポートは6時間55分前の16:40(UTC)に作成
予報は23日の 18時(UTC)から 24日の 24時(UTC)まで有効
変向風 4kt
視程10km以上
高度3300ftの雲は散在している
23日の 22時(UTC)から 23日の 24時(UTC)まで徐々に
南/南東の風 14kt
24日の 04時(UTC)から 24日の 06時(UTC)まで徐々に
南/南西の風 14kt
24日の 12時(UTC)から 24日の 14時(UTC)まで徐々に
西/北西の風 10kt
高度3000ftの雲はほとんどない, 積乱雲.
高度3300ftの千切れ雲あり
24日の 16時(UTC)から 24日の 24時(UTC)まで一時的に
視程: 6000m
高度2300ftの雲はほとんどない
高度2700ftの雲はほとんどない, 積乱雲.
高度3000ftの千切れ雲あり
小雨, 雪
24日の 20時(UTC)から 24日の 22時(UTC)まで徐々に
北西の風 14kt

TAF: ZMUB 231640Z 2318/2424 VRB02MPS 9999 SCT033 TNM01/2322Z TX19/2407Z BECMG 2322/2324 16007MPS BECMG 2404/2406 20007MPS BECMG 2412/2414 30005MPS FEW030CB BKN033 TEMPO 2416/2424 6000 -RASN FEW023 FEW027CB BKN030 BECMG 2420/2422 31007MPS

4,000以上の空港の気象観測と天気予報(METAR報とTAF報)

利用可能な観測所は地図上に黄色い丸と赤い丸で示す。

丸の上にカーソルを重ねると観測所名を参照できる。

次にクリックすると気象観測と天気予報を参照できる。

マップの切り替え:黒色「×」印の緑ボタンをクリックして拡大、「-」印の緑ボタンをクリックして縮小、緑色の三角印をクリックして隣りの地図に切り替え


METAR-TAF: